Langdon, ND

6:13 AM CDT on July 30, 2014 (GMT -0500)
Cavalier (K2C8) Elev 892 ft | 48.78 °N, 97.63 °W | Change Station

Current weather conditions updated 18 minutes ago

Clear
Clear
54 °F
Feels Like 54 °F
N
4
Wind Variable Wind from WNW

Today is forecast to be Warmer than yesterday.

Today
High -- | Low -- °F
--% Chance of Precip.
Yesterday
High -- | Low -- °F
Precip. -- in
6:04 AM 9:14 PM
Waxing Crescent, 11% visible
Pressure 30.12 in
Visibility 10.0 miles
Clouds Clear
Dew Point 50 °F
Humidity 88%
Rainfall 0.00 in
Snow Depth Not available.
UV 0 out of 12
Pollen 7.50 out of 12
Air Quality Not available.
Flu Activity Not available.
METAR K2C8 301055Z AUTO 29003KT 10SM CLR 12/10 A3012 RMK AO2

More Conditions Fewer Conditions

Pressure 30.12 in
Visibility 10.0 miles
Clouds Clear
Dew Point 50 °F
Humidity 88%
Rainfall 0.00 in
Snow Depth Not available.
UV 0 out of 12
Pollen 7.50 out of 12
Air Quality Not available.
Flu Activity Not available.
METAR K2C8 301055Z AUTO 29003KT 10SM CLR 12/10 A3012 RMK AO2

More Conditions Fewer Conditions

10-Day Weather Forecast

Almanac

Astronomy

Jul. 30, 2014 Rise Set
Actual Time 6:04 AM CDT 9:14 PM CDT
Civil Twilight 5:26 AM CDT 9:51 PM CDT
Nautical Twilight 4:37 AM CDT 10:40 PM CDT
Astronomical Twilight 3:35 AM CDT 11:42 PM CDT
Moon 10:00 AM CDT 10:32 PM CDT
Length of Visible Light 16h 24m
Length of Day
15h 09m
Tomorrow will be 2m 45s shorter.
Waxing Crescent, 11% of the Moon is Illuminated
Today
Waxing Crescent
Aug 3
First Quarter
Aug 10
Full
Aug 17
Last Quarter
Aug 25
New

Today's Extremes

State Highs State Lows

Community

WunderPhotos

Upload Photos

1,739,039 photos uploaded!

WunderBlogs® & News

Nearby

Snow Depth

Station Depth Elevation
No new snow has been reported.

Earthquake Activity

City Distance Mag. Time & Date
No recent earthquake activity has been reported nearby.
Minimum magnitude displayed is 2.5.

Coastal Water Temperatures

Place Temperature
No Stations Reporting

Nearby Weather Stations

Station Location Temp. Dew Point Humidity Wind Precip. Elev Updated Type
Dresden, ND, Langdon, ND 50.1 °F 49 °F 96% North  at  0.0 mph 0.00 in / hr 1588 ft 6:13 AM CDT Rapid Fire
RAWS HAMPDEN ND, Hampden, ND 55 °F 54 °F 98% WSW  at  3 mph 0.00 in / hr 1582 ft 4:58 AM CDT MADIS

Show More Stations Show Fewer Stations